KAKH

Gastonia Municipal Airport

Gastonia, North Carolina, USA
METAR KAKH 151854Z AUTO 19011G19KT 10SM BKN070 18/08 A2982 RMK AO2 SLP094 T01780083
Observed Flight Rules
Feb-15 @ 18:54 UTC (18 minutes ago) Visual Flight Rules
Wind Visibility Clouds
190° at 11 knots
 Gusting to 19 knots
10 miles
  • Broken at 7,000' AGL
Temperatures Readings
Current 18°C / 64°F
Dewpoint 8°C / 46°F
Humidity 52%
Altimeter 29.82" Hg
Pressure 1009.4 hPa
Elevation 243
METAR KAKH 151854Z AUTO 19011G19KT 10SM BKN070 18/08 A2982 RMK AO2 SLP094 T01780083
Observed Flight Rules
Feb-15 @ 18:54 UTC
(18 minutes ago)
VFR
Wind Visibility
190° at 11 knots
 Gusting to 19 knots
10 miles
Clouds
  • Broken at 7,000' AGL
Temperature Dewpoint
18°C / 64°F 8°C / 46°F
Humidity Altimeter Pressure
52% 29.82" Hg 1009.4 hPa